Baker, Oklahoma
Current Conditions -  °F | °C
As of 3:35 AM on Thursday 27 Nov 2014 (Local Time) from KLBL Reporting Station
Clear Clear  
Wind Chill: 12°   Ceiling: Unl
Heat Index: 21°   Visibility: 10mi
Dew Point: 12°   Wind: 8mph
Humidity: 68%   Direction: 220°SW
Pressure: 30.43"   Gusts: NA
Location:  36.8748°N, 100.837°W
Report Text: KLBL 270935Z AUTO 22007KT 10SM CLR M06/M11 A3043 RMK AO1
Loading
Personal Weather Stations






























Interactive Weather Map New forecast layout! Learn more

10-Day Weather Forecast

Advertisements
Track Severe Weather on mobile